Time;durP1;ratioP1;P1;durP2;ratioP2;P2;SDS_P1;SDS_P2;PMS_P1;PMS_P2;Temp;Humidity;BMP_temperature;BMP_pressure;BME280_temperature;BME280_humidity;BME280_pressure;Samples;Min_cycle;Max_cycle;Signal;HPM_P1;HPM_P2
2022/09/11 00:01:02;;;;;;;22.38;15.13;;;14.20;99.90;;;;;;4925240;29;20052;-76
2022/09/11 00:03:46;;;;;;;34.70;18.60;;;14.30;99.90;;;;;;4969030;28;20043;-76
2022/09/11 00:06:30;;;;;;;23.52;14.95;;;14.30;99.90;;;;;;4940441;29;20126;-79
2022/09/11 00:09:03;;;;;;;;;;;14.30;99.90;;;;;;4958728;28;20051;-79
2022/09/11 00:12:05;;;;;;;28.10;17.25;;;14.30;99.90;;;;;;4956107;28;20010;-77
2022/09/11 00:14:38;;;;;;;24.08;15.45;;;14.30;99.90;;;;;;4951488;29;20091;-79
2022/09/11 00:17:10;;;;;;;22.83;15.55;;;14.30;99.90;;;;;;4936437;29;20052;-79
2022/09/11 00:19:51;;;;;;;26.42;17.15;;;14.30;99.90;;;;;;4935414;29;20530;-79
2022/09/11 00:22:17;;;;;;;24.02;16.05;;;14.30;99.90;;;;;;4936398;29;20048;-78
2022/09/11 00:24:49;;;;;;;25.20;17.85;;;14.30;99.90;;;;;;4904934;29;20087;-79
2022/09/11 00:27:15;;;;;;;25.65;17.90;;;14.30;99.90;;;;;;4936914;29;20059;-80
2022/09/11 00:29:48;;;;;;;28.20;18.33;;;14.30;99.90;;;;;;4936919;29;20554;-79
2022/09/11 00:32:14;;;;;;;24.05;15.38;;;14.30;99.90;;;;;;4937793;29;20059;-79
2022/09/11 00:34:40;;;;;;;34.45;21.13;;;14.30;99.90;;;;;;4941040;29;20263;-76
2022/09/11 00:37:06;;;;;;;23.67;15.85;;;14.20;99.90;;;;;;4941293;29;20047;-79
2022/09/11 00:39:32;;;;;;;25.00;16.85;;;14.20;99.90;;;;;;4939824;29;20183;-79
2022/09/11 00:42:10;;;;;;;21.83;15.00;;;14.20;99.90;;;;;;4936363;29;20477;-78
2022/09/11 00:44:37;;;;;;;21.27;15.77;;;14.20;99.90;;;;;;4939460;29;20482;-78
2022/09/11 00:47:08;;;;;;;26.38;18.20;;;14.20;99.90;;;;;;4956459;28;20486;-78
2022/09/11 00:49:55;;;;;;;25.58;17.25;;;14.30;99.90;;;;;;4924766;29;20101;-78
2022/09/11 00:52:34;;;;;;;25.02;17.50;;;14.30;99.90;;;;;;4955675;28;20188;-79
2022/09/11 00:55:22;;;;;;;27.77;17.98;;;14.30;99.90;;;;;;4940405;29;20084;-77
2022/09/11 00:58:12;;;;;;;25.25;18.13;;;14.30;99.90;;;;;;4939732;29;20102;-77
2022/09/11 01:00:50;;;;;;;22.25;16.95;;;14.30;99.90;;;;;;4924091;29;20048;-78
2022/09/11 01:03:34;;;;;;;26.65;18.42;;;14.40;99.90;;;;;;4940616;29;20501;-78
2022/09/11 01:06:06;;;;;;;24.88;16.08;;;14.50;99.90;;;;;;4972501;28;20063;-78
2022/09/11 01:08:32;;;;;;;28.97;18.50;;;14.60;99.90;;;;;;4925683;29;20086;-78
2022/09/11 01:11:44;;;;;;;27.77;19.88;;;14.60;99.90;;;;;;4956227;29;20051;-77
2022/09/11 01:15:02;;;;;;;24.65;16.40;;;14.60;99.90;;;;;;4956638;28;20126;-78
2022/09/11 01:18:14;;;;;;;30.20;17.65;;;14.60;99.90;;;;;;4955057;29;20141;-77
2022/09/11 01:21:17;;;;;;;20.40;14.38;;;14.60;99.90;;;;;;4940668;29;20062;-79
2022/09/11 01:24:03;;;;;;;26.23;17.50;;;14.60;99.90;;;;;;4955483;29;20497;-75
2022/09/11 01:26:51;;;;;;;27.63;17.33;;;14.50;99.90;;;;;;4955687;29;20094;-78
2022/09/11 01:29:29;;;;;;;22.52;16.23;;;14.50;99.90;;;;;;4939619;29;20047;-77
2022/09/11 01:32:20;;;;;;;25.00;17.42;;;14.50;99.90;;;;;;4940182;29;20488;-75
2022/09/11 01:35:16;;;;;;;24.15;16.65;;;14.40;99.90;;;;;;4939767;29;20051;-77
2022/09/11 01:37:51;;;;;;;20.17;15.48;;;14.50;99.90;;;;;;4955489;29;20051;-78
2022/09/11 01:40:48;;;;;;;22.27;16.58;;;14.40;99.90;;;;;;4955089;29;20055;-78
2022/09/11 01:43:30;;;;;;;22.45;16.77;;;14.40;99.90;;;;;;4941601;29;20066;-78
2022/09/11 01:46:00;;;;;;;16.80;12.65;;;14.40;99.90;;;;;;4939204;29;20106;-79
2022/09/11 01:48:45;;;;;;;22.00;15.38;;;14.40;99.90;;;;;;4955465;29;20105;-78
2022/09/11 01:51:17;;;;;;;20.23;15.32;;;14.40;99.90;;;;;;4955865;29;20458;-78
2022/09/11 01:53:58;;;;;;;21.48;13.63;;;14.30;99.90;;;;;;4955473;29;20059;-77
2022/09/11 01:56:47;;;;;;;23.38;15.77;;;14.30;99.90;;;;;;4939748;29;20063;-78
2022/09/11 01:59:26;;;;;;;18.60;14.98;;;14.20;99.90;;;;;;4971844;28;20213;-76
2022/09/11 02:02:01;;;;;;;19.10;14.45;;;14.20;99.90;;;;;;4971498;28;20039;-78
2022/09/11 02:04:51;;;;;;;20.80;12.95;;;14.20;99.90;;;;;;4938366;29;20055;-77
2022/09/11 02:07:29;;;;;;;24.02;16.92;;;14.20;99.90;;;;;;4954791;29;20058;-77
2022/09/11 02:10:08;;;;;;;24.00;16.55;;;14.20;99.90;;;;;;4939214;29;20117;-76
2022/09/11 02:12:43;;;;;;;21.83;14.20;;;14.20;99.90;;;;;;4940007;29;20082;-77
2022/09/11 02:15:28;;;;;;;21.05;15.48;;;14.20;99.90;;;;;;4941566;29;20086;-75
2022/09/11 02:18:03;;;;;;;18.70;13.88;;;14.20;99.90;;;;;;4955395;29;20126;-78
2022/09/11 02:20:36;;;;;;;22.65;16.58;;;14.20;99.90;;;;;;4940081;29;20047;-77
2022/09/11 02:23:07;;;;;;;21.85;15.48;;;14.20;99.90;;;;;;4938867;29;20055;-77
2022/09/11 02:25:33;;;;;;;21.40;15.75;;;14.20;99.90;;;;;;4938732;29;20051;-77
2022/09/11 02:28:08;;;;;;;21.65;14.30;;;14.20;99.90;;;;;;4939833;29;20491;-75
2022/09/11 02:30:34;;;;;;;21.58;15.38;;;14.10;99.90;;;;;;4954819;29;20066;-78
2022/09/11 02:33:08;;;;;;;20.15;14.27;;;14.10;99.90;;;;;;4938030;29;20035;-77
2022/09/11 02:35:45;;;;;;;23.23;16.02;;;14.10;99.90;;;;;;4970578;28;20047;-77
2022/09/11 02:38:45;;;;;;;19.00;12.50;;;14.10;99.90;;;;;;4937216;29;20055;-77
2022/09/11 02:41:29;;;;;;;20.45;13.77;;;14.10;99.90;;;;;;4938131;29;20510;-77
2022/09/11 02:44:25;;;;;;;19.83;15.07;;;14.10;99.90;;;;;;4940345;29;20058;-76
2022/09/11 02:47:15;;;;;;;21.38;15.52;;;14.10;99.90;;;;;;4924859;29;20058;-77
2022/09/11 02:50:18;;;;;;;21.23;14.38;;;14.10;99.90;;;;;;4938109;29;20059;-77
2022/09/11 02:52:54;;;;;;;23.67;16.75;;;14.00;99.90;;;;;;4938222;29;20059;-77
2022/09/11 02:55:30;;;;;;;19.02;14.30;;;14.00;99.90;;;;;;4955376;29;20059;-76
2022/09/11 02:58:34;;;;;;;21.70;15.77;;;14.00;99.90;;;;;;4940427;29;20118;-75
2022/09/11 03:01:04;;;;;;;17.83;12.35;;;14.00;99.90;;;;;;4938150;29;20076;-74
2022/09/11 03:03:43;;;;;;;18.60;14.65;;;14.00;99.90;;;;;;4954746;28;20054;-78
2022/09/11 03:06:30;;;;;;;19.48;13.25;;;14.00;99.90;;;;;;4953085;29;20054;-77
2022/09/11 03:08:55;;;;;;;18.10;12.45;;;14.00;99.90;;;;;;4936472;29;20062;-78
2022/09/11 03:11:22;;;;;;;19.88;12.77;;;14.00;99.90;;;;;;4953952;29;20051;-78
2022/09/11 03:13:57;;;;;;;19.50;13.15;;;13.90;99.90;;;;;;4952649;29;20494;-78
2022/09/11 03:16:32;;;;;;;25.45;14.38;;;13.90;99.90;;;;;;4938746;29;20053;-78
2022/09/11 03:19:02;;;;;;;16.52;13.00;;;13.90;99.90;;;;;;4953782;29;20047;-74
2022/09/11 03:21:29;;;;;;;20.50;12.18;;;13.90;99.90;;;;;;4954342;28;20070;-77
2022/09/11 03:24:09;;;;;;;19.52;14.45;;;13.90;99.90;;;;;;4939512;29;20054;-76
2022/09/11 03:26:54;;;;;;;19.30;12.50;;;13.90;99.90;;;;;;4921670;29;20512;-77
2022/09/11 03:29:21;;;;;;;16.23;12.05;;;13.90;99.90;;;;;;4924370;29;20047;-77
2022/09/11 03:31:48;;;;;;;18.67;14.38;;;13.80;99.90;;;;;;4953095;29;20078;-77
2022/09/11 03:34:21;;;;;;;18.63;12.63;;;13.80;99.90;;;;;;4921835;29;20047;-78
2022/09/11 03:36:59;;;;;;;23.95;13.93;;;13.80;99.90;;;;;;4921601;29;20043;-78
2022/09/11 03:39:26;;;;;;;19.33;14.23;;;13.70;99.90;;;;;;4953103;29;20059;-76
2022/09/11 03:41:58;;;;;;;16.63;11.57;;;13.80;99.90;;;;;;4937980;29;20051;-77
2022/09/11 03:44:28;;;;;;;20.55;14.43;;;13.80;99.90;;;;;;4937759;29;20466;-76
2022/09/11 03:46:55;;;;;;;19.38;13.45;;;13.90;99.90;;;;;;4937256;29;20388;-75
2022/09/11 03:49:20;;;;;;;16.63;13.20;;;13.90;99.90;;;;;;4921817;29;20497;-77
2022/09/11 03:51:48;;;;;;;15.63;12.57;;;14.00;99.90;;;;;;4953008;29;20155;-75
2022/09/11 03:54:24;;;;;;;19.63;14.18;;;13.90;99.90;;;;;;4953304;28;20099;-76
2022/09/11 03:56:51;;;;;;;;;;;13.90;99.90;;;;;;4953786;29;20119;-77
2022/09/11 03:59:45;;;;;;;22.58;15.20;;;13.90;99.90;;;;;;4952934;29;20069;-77
2022/09/11 04:02:11;;;;;;;19.70;13.48;;;13.80;99.90;;;;;;4937011;29;20051;-77
2022/09/11 04:04:47;;;;;;;15.20;11.55;;;13.80;99.90;;;;;;4937379;29;20047;-74
2022/09/11 04:07:13;;;;;;;21.17;14.98;;;13.80;99.90;;;;;;4937148;29;20062;-76
2022/09/11 04:09:56;;;;;;;17.77;13.05;;;13.80;99.90;;;;;;4936605;29;20134;-77
2022/09/11 04:12:30;;;;;;;19.38;15.18;;;13.80;99.90;;;;;;4937826;29;20095;-77
2022/09/11 04:15:02;;;;;;;17.13;13.10;;;13.80;99.90;;;;;;4937680;29;20054;-77
2022/09/11 04:17:31;;;;;;;12.48;9.70;;;13.80;99.90;;;;;;4936905;29;20043;-76
2022/09/11 04:19:58;;;;;;;16.98;12.90;;;13.80;99.90;;;;;;4921194;29;20106;-77
2022/09/11 04:22:23;;;;;;;18.40;12.57;;;13.80;99.90;;;;;;4921571;29;20130;-76
2022/09/11 04:25:00;;;;;;;16.40;12.07;;;13.80;99.90;;;;;;4952663;29;20518;-74
2022/09/11 04:27:35;;;;;;;17.10;12.95;;;13.70;99.90;;;;;;4967959;28;20126;-77
2022/09/11 04:30:16;;;;;;;16.65;12.27;;;13.70;99.90;;;;;;4940789;29;20456;-77
2022/09/11 04:32:41;;;;;;;18.05;13.68;;;13.70;99.90;;;;;;4939166;29;20054;-77
2022/09/11 04:35:15;;;;;;;14.23;11.07;;;13.70;99.90;;;;;;4939302;29;20090;-77
2022/09/11 04:37:55;;;;;;;17.25;12.20;;;13.70;99.90;;;;;;4942262;29;20040;-78
2022/09/11 04:40:28;;;;;;;17.15;14.20;;;13.70;99.90;;;;;;4924469;29;20527;-77
2022/09/11 04:42:54;;;;;;;;;;;13.60;99.90;;;;;;4926167;29;20098;-77
2022/09/11 04:45:22;;;;;;;12.48;9.90;;;13.60;99.90;;;;;;4956282;29;19923;-76
2022/09/11 04:47:51;;;;;;;17.92;12.48;;;13.60;99.90;;;;;;4924864;29;20138;-77
2022/09/11 04:50:18;;;;;;;14.80;11.20;;;13.60;99.90;;;;;;4940646;29;20427;-76
2022/09/11 04:52:44;;;;;;;15.38;11.60;;;13.60;99.90;;;;;;4971891;28;20143;-77
2022/09/11 04:55:20;;;;;;;12.95;10.43;;;13.60;99.90;;;;;;4956224;28;20406;-77
2022/09/11 04:57:48;;;;;;;16.88;12.48;;;13.60;99.90;;;;;;4956130;29;20055;-76
2022/09/11 05:00:14;;;;;;;17.20;12.45;;;13.60;99.90;;;;;;4924613;29;20057;-77
2022/09/11 05:02:40;;;;;;;13.70;11.23;;;13.60;99.90;;;;;;4972249;28;20055;-75
2022/09/11 05:05:14;;;;;;;13.15;11.80;;;13.60;99.90;;;;;;4941225;29;20082;-76
2022/09/11 05:07:40;;;;;;;13.85;10.38;;;13.60;99.90;;;;;;4924973;29;20051;-75
2022/09/11 05:10:13;;;;;;;15.23;11.43;;;13.70;99.90;;;;;;4955888;29;20440;-75
2022/09/11 05:12:40;;;;;;;11.45;9.25;;;13.70;99.90;;;;;;4972397;28;20183;-77
2022/09/11 05:15:06;;;;;;;12.05;10.25;;;13.60;99.90;;;;;;4924016;29;20113;-77
2022/09/11 05:17:33;;;;;;;12.48;10.75;;;13.60;99.90;;;;;;4956019;29;20051;-76
2022/09/11 05:19:59;;;;;;;12.15;10.02;;;13.70;99.90;;;;;;4924528;29;20051;-77
2022/09/11 05:22:26;;;;;;;14.82;12.07;;;13.70;99.90;;;;;;4924205;29;20529;-76
2022/09/11 05:24:52;;;;;;;12.23;10.95;;;13.70;99.90;;;;;;4955818;29;20528;-76
2022/09/11 05:27:26;;;;;;;10.88;9.52;;;13.70;99.90;;;;;;4919405;29;20060;-77
2022/09/11 05:29:53;;;;;;;14.27;11.57;;;13.70;99.90;;;;;;4935020;29;20496;-77
2022/09/11 05:32:42;;;;;;;14.77;12.13;;;13.80;99.90;;;;;;4907420;29;20107;-77
2022/09/11 05:35:08;;;;;;;14.77;10.73;;;13.70;99.90;;;;;;4904346;29;20143;-78
2022/09/11 05:37:33;;;;;;;14.05;11.57;;;13.70;99.90;;;;;;4888052;29;20655;-76
2022/09/11 05:39:59;;;;;;;14.30;11.40;;;13.70;99.90;;;;;;4934693;29;20171;-76
2022/09/11 05:42:27;;;;;;;14.60;12.30;;;13.70;99.90;;;;;;4872542;29;20502;-76
2022/09/11 05:44:54;;;;;;;18.52;12.70;;;13.80;99.90;;;;;;4919155;29;20062;-77
2022/09/11 05:47:20;;;;;;;13.93;11.05;;;13.80;99.90;;;;;;4902851;29;20059;-75
2022/09/11 05:49:50;;;;;;;15.10;11.85;;;13.80;99.90;;;;;;4903447;29;20048;-76
2022/09/11 05:52:18;;;;;;;15.55;13.13;;;13.90;99.90;;;;;;4872854;29;20067;-75
2022/09/11 05:54:47;;;;;;;13.70;11.18;;;13.90;99.90;;;;;;4903591;29;20078;-77
2022/09/11 05:57:13;;;;;;;12.13;9.95;;;14.00;99.90;;;;;;4920156;29;20052;-77
2022/09/11 05:59:39;;;;;;;12.30;9.77;;;14.00;99.90;;;;;;4938916;29;20055;-78
2022/09/11 06:02:05;;;;;;;14.85;11.52;;;14.00;99.90;;;;;;4923607;29;20498;-77
2022/09/11 06:04:32;;;;;;;16.88;12.93;;;14.10;99.90;;;;;;4955028;29;20128;-76
2022/09/11 06:07:04;;;;;;;13.68;11.02;;;14.20;99.90;;;;;;4955040;29;20143;-76
2022/09/11 06:09:45;;;;;;;15.30;12.18;;;14.20;99.90;;;;;;4941376;29;20047;-77
2022/09/11 06:12:13;;;;;;;13.27;10.10;;;14.30;99.90;;;;;;4955753;28;20407;-76
2022/09/11 06:14:39;;;;;;;14.35;10.52;;;14.30;99.90;;;;;;4939313;29;20080;-77
2022/09/11 06:17:13;;;;;;;15.18;11.90;;;14.40;99.90;;;;;;4954596;28;20043;-77
2022/09/11 06:19:39;;;;;;;11.13;9.05;;;14.50;99.90;;;;;;4954848;29;20044;-77
2022/09/11 06:22:06;;;;;;;11.18;9.85;;;14.50;99.90;;;;;;4939043;29;20051;-76
2022/09/11 06:24:32;;;;;;;12.93;11.23;;;14.60;99.90;;;;;;4923429;29;20051;-77
2022/09/11 06:27:10;;;;;;;15.02;11.10;;;14.70;99.90;;;;;;4939451;29;20047;-76
2022/09/11 06:29:44;;;;;;;11.85;9.35;;;14.70;99.90;;;;;;4923418;29;20134;-77
2022/09/11 06:32:11;;;;;;;13.80;10.88;;;14.80;99.90;;;;;;4940036;28;20083;-76
2022/09/11 06:35:11;;;;;;;14.73;10.85;;;14.90;99.90;;;;;;4968099;28;20089;-78
2022/09/11 06:37:43;;;;;;;16.25;10.70;;;15.00;99.90;;;;;;4954297;29;20122;-77
2022/09/11 06:40:11;;;;;;;14.30;10.75;;;15.00;99.90;;;;;;4922575;29;20101;-76
2022/09/11 06:42:39;;;;;;;11.70;8.80;;;15.10;99.90;;;;;;4938191;29;20051;-74
2022/09/11 06:45:13;;;;;;;13.93;10.35;;;15.20;99.90;;;;;;4923054;29;20069;-75
2022/09/11 06:47:54;;;;;;;13.38;9.98;;;15.30;99.90;;;;;;4933661;29;20135;-76
2022/09/11 06:50:25;;;;;;;14.23;10.98;;;15.40;99.90;;;;;;4870827;29;20489;-74
2022/09/11 06:53:07;;;;;;;12.20;10.18;;;15.50;99.90;;;;;;4918297;29;20052;-77
2022/09/11 06:55:42;;;;;;;12.05;9.13;;;15.60;99.90;;;;;;4933636;29;20063;-77
2022/09/11 06:58:09;;;;;;;11.93;10.07;;;15.70;99.90;;;;;;4886677;29;20054;-76
2022/09/11 07:00:38;;;;;;;15.00;10.57;;;15.80;99.90;;;;;;4901413;29;20067;-76
2022/09/11 07:03:06;;;;;;;12.15;9.43;;;15.90;99.90;;;;;;4933573;29;20550;-77
2022/09/11 07:05:32;;;;;;;12.13;10.23;;;16.10;99.90;;;;;;4917749;29;20063;-76
2022/09/11 07:07:58;;;;;;;13.25;10.23;;;16.10;99.90;;;;;;4917605;29;20122;-76
2022/09/11 07:10:33;;;;;;;13.65;9.65;;;16.20;99.90;;;;;;4886404;29;20139;-76
2022/09/11 07:13:11;;;;;;;11.43;8.50;;;16.30;99.90;;;;;;4889179;29;20135;-75
2022/09/11 07:15:46;;;;;;;12.13;9.07;;;16.40;99.90;;;;;;4886143;29;20052;-75
2022/09/11 07:18:13;;;;;;;10.27;8.65;;;16.50;99.90;;;;;;4907162;29;20093;-76
2022/09/11 07:20:40;;;;;;;10.25;8.50;;;16.60;99.90;;;;;;4937676;29;20051;-74
2022/09/11 07:23:07;;;;;;;12.32;9.00;;;16.70;99.90;;;;;;4937666;29;20515;-74
2022/09/11 07:25:42;;;;;;;9.10;8.15;;;16.90;99.90;;;;;;4969383;28;20047;-76
2022/09/11 07:28:11;;;;;;;7.13;6.43;;;17.40;99.90;;;;;;4937357;29;20051;-76
2022/09/11 07:30:40;;;;;;;7.95;6.07;;;18.70;99.90;;;;;;4937873;29;20541;-76
2022/09/11 07:33:16;;;;;;;6.53;5.93;;;19.80;99.90;;;;;;4924594;29;20047;-75
2022/09/11 07:35:48;;;;;;;7.88;6.03;;;21.40;99.90;;;;;;4937272;29;20055;-77
2022/09/11 07:38:13;;;;;;;7.82;6.22;;;22.60;99.90;;;;;;4936928;29;20043;-75
2022/09/11 07:40:56;;;;;;;6.93;5.95;;;23.70;99.90;;;;;;4937281;29;20143;-76
2022/09/11 07:43:26;;;;;;;5.78;5.28;;;24.60;99.90;;;;;;4954468;29;20539;-76
2022/09/11 07:45:52;;;;;;;7.97;5.00;;;25.40;99.90;;;;;;4921456;29;20059;-76
2022/09/11 07:48:19;;;;;;;6.50;5.43;;;25.90;99.90;;;;;;4952993;29;20133;-75
2022/09/11 07:51:21;;;;;;;6.22;5.03;;;26.50;99.90;;;;;;4921623;29;20062;-76
2022/09/11 07:53:56;;;;;;;5.22;4.65;;;27.00;98.60;;;;;;4952231;28;20055;-76
2022/09/11 07:56:34;;;;;;;5.82;5.15;;;27.50;99.90;;;;;;4953620;29;20134;-75
2022/09/11 07:59:05;;;;;;;6.22;5.03;;;27.80;98.20;;;;;;4922029;29;20121;-77
2022/09/11 08:01:32;;;;;;;6.35;5.15;;;27.90;99.90;;;;;;4922092;29;20054;-78
2022/09/11 08:04:01;;;;;;;5.93;5.10;;;27.90;99.90;;;;;;4925281;29;20047;-77
2022/09/11 08:06:30;;;;;;;6.30;4.07;;;28.30;99.90;;;;;;4972644;28;20051;-75
2022/09/11 08:08:59;;;;;;;5.68;4.70;;;28.70;99.40;;;;;;4925646;29;20118;-78
2022/09/11 08:11:35;;;;;;;5.40;4.85;;;28.70;96.50;;;;;;4956921;29;20110;-77
2022/09/11 08:14:03;;;;;;;5.25;4.75;;;28.60;98.10;;;;;;4926874;29;20545;-77
2022/09/11 08:16:29;;;;;;;6.50;4.50;;;29.10;97.80;;;;;;4956353;29;20059;-78
2022/09/11 08:18:56;;;;;;;4.75;4.03;;;29.40;97.10;;;;;;4972423;28;20047;-77
2022/09/11 08:21:22;;;;;;;5.63;3.65;;;29.50;96.60;;;;;;4924425;29;20047;-78
2022/09/11 08:23:48;;;;;;;4.43;3.50;;;29.80;96.30;;;;;;4972506;28;20483;-78
2022/09/11 08:26:27;;;;;;;4.72;2.30;;;29.90;95.60;;;;;;4956144;29;20106;-77
2022/09/11 08:28:56;;;;;;;4.05;3.42;;;28.60;91.10;;;;;;4956674;29;20534;-79
2022/09/11 08:31:25;;;;;;;3.10;2.50;;;28.60;95.20;;;;;;4925364;29;20535;-77
2022/09/11 08:33:54;;;;;;;5.15;4.30;;;29.00;93.30;;;;;;4940914;29;20052;-79
2022/09/11 08:36:20;;;;;;;3.78;2.83;;;29.20;94.50;;;;;;4925256;29;20054;-80
2022/09/11 08:38:47;;;;;;;3.53;2.38;;;29.00;94.10;;;;;;4939833;29;20047;-79
2022/09/11 08:41:47;;;;;;;2.90;2.20;;;28.00;94.20;;;;;;4956484;29;20102;-75
2022/09/11 08:44:19;;;;;;;3.33;2.20;;;26.50;94.00;;;;;;4938124;29;20384;-76
2022/09/11 08:47:12;;;;;;;2.85;2.15;;;25.40;96.30;;;;;;4938818;29;20051;-79
2022/09/11 08:49:46;;;;;;;5.70;2.55;;;25.20;95.30;;;;;;4955496;29;20043;-79
2022/09/11 08:52:15;;;;;;;5.78;2.78;;;25.40;96.40;;;;;;4939138;29;20118;-78
2022/09/11 08:54:46;;;;;;;5.07;2.72;;;26.40;96.00;;;;;;4935781;29;20048;-75
2022/09/11 08:57:39;;;;;;;4.30;2.35;;;27.50;94.70;;;;;;4935601;29;20051;-77
2022/09/11 09:00:47;;;;;;;3.30;2.50;;;28.30;91.70;;;;;;4904633;29;20256;-78
2022/09/11 09:04:14;;;;;;;4.22;2.20;;;27.30;91.20;;;;;;4904169;29;20048;-76
2022/09/11 09:07:26;;;;;;;2.75;1.95;;;27.60;92.30;;;;;;4917044;29;20221;-80
2022/09/11 09:10:12;;;;;;;2.70;2.05;;;28.00;91.60;;;;;;4935893;29;20142;-77
2022/09/11 09:13:11;;;;;;;3.22;1.60;;;28.80;91.40;;;;;;4935631;29;20063;-76
2022/09/11 09:16:27;;;;;;;2.70;1.90;;;29.10;89.00;;;;;;4916802;29;20447;-76
2022/09/11 09:19:02;;;;;;;4.32;2.10;;;29.20;90.70;;;;;;4938947;29;20055;-78
2022/09/11 09:21:38;;;;;;;3.35;1.98;;;29.80;92.30;;;;;;4953949;29;20110;-77
2022/09/11 09:24:18;;;;;;;3.63;2.03;;;30.50;91.00;;;;;;4937515;29;20091;-77
2022/09/11 09:26:56;;;;;;;4.07;2.40;;;30.40;91.20;;;;;;4924202;29;20054;-79
2022/09/11 09:29:35;;;;;;;3.03;2.13;;;30.50;90.90;;;;;;4907254;29;20092;-84
2022/09/11 09:32:46;;;;;;;3.53;2.13;;;29.40;88.90;;;;;;4919791;29;20060;-85
2022/09/11 09:35:18;;;;;;;2.47;2.00;;;29.10;91.00;;;;;;4915043;29;20052;-85
2022/09/11 09:37:45;;;;;;;4.60;1.50;;;29.50;90.90;;;;;;4947125;29;20095;-84
2022/09/11 09:40:24;;;;;;;2.42;1.20;;;29.20;90.60;;;;;;4936357;29;20111;-84
2022/09/11 09:43:06;;;;;;;;;;;29.10;90.20;;;;;;4936477;29;20055;-85
2022/09/11 09:46:07;;;;;;;1.85;1.40;;;29.40;84.00;;;;;;4936441;29;20009;-85
2022/09/11 09:48:38;;;;;;;4.72;2.42;;;29.50;85.60;;;;;;4934808;29;20055;-85
2022/09/11 09:51:16;;;;;;;4.15;2.40;;;30.00;89.10;;;;;;4922440;29;20412;-85
2022/09/11 09:53:53;;;;;;;3.90;1.70;;;30.30;89.80;;;;;;4936458;29;20058;-85
2022/09/11 09:56:22;;;;;;;3.17;1.65;;;30.70;87.90;;;;;;4955647;29;20074;-85
2022/09/11 09:59:23;;;;;;;2.03;1.63;;;30.60;87.80;;;;;;4955202;29;20101;-85
2022/09/11 10:01:53;;;;;;;1.90;1.80;;;30.90;85.50;;;;;;4970625;28;20044;-85
2022/09/11 10:04:25;;;;;;;4.65;2.45;;;30.90;86.10;;;;;;4923291;29;20051;-84
2022/09/11 10:07:13;;;;;;;3.60;1.92;;;30.60;85.50;;;;;;4971183;28;20039;-84
2022/09/11 10:09:51;;;;;;;5.25;1.77;;;30.60;85.50;;;;;;4955406;29;20130;-85
2022/09/11 10:12:30;;;;;;;2.15;1.40;;;30.70;82.50;;;;;;4954738;29;20058;-84
2022/09/11 10:14:59;;;;;;;2.42;1.52;;;30.60;83.70;;;;;;4955256;29;20051;-84
2022/09/11 10:17:34;;;;;;;2.10;1.58;;;30.80;82.90;;;;;;4954305;29;20055;-86
2022/09/11 10:20:25;;;;;;;3.08;1.48;;;30.60;82.90;;;;;;4968165;28;20041;-85
2022/09/11 10:22:54;;;;;;;3.95;1.33;;;30.50;84.30;;;;;;4955019;29;20051;-78
2022/09/11 10:25:25;;;;;;;3.13;1.40;;;30.80;84.10;;;;;;4970129;28;20118;-78
2022/09/11 10:28:11;;;;;;;2.78;1.67;;;31.40;83.00;;;;;;4940566;29;20051;-76
2022/09/11 10:31:13;;;;;;;2.63;1.50;;;31.40;80.20;;;;;;4940955;29;20062;-77
2022/09/11 10:33:59;;;;;;;1.75;1.20;;;29.80;81.00;;;;;;4939414;29;20062;-77
2022/09/11 10:36:27;;;;;;;2.55;1.30;;;29.20;81.70;;;;;;4955397;28;20051;-77
2022/09/11 10:38:55;;;;;;;1.27;1.17;;;28.10;84.50;;;;;;4938124;28;20093;-76
2022/09/11 10:41:25;;;;;;;2.55;1.30;;;27.20;85.50;;;;;;4954143;28;20516;-79
2022/09/11 10:44:04;;;;;;;3.50;1.52;;;26.60;87.00;;;;;;4954343;29;20094;-77
2022/09/11 10:46:38;;;;;;;2.75;1.42;;;26.10;87.10;;;;;;4954203;29;20058;-78
2022/09/11 10:49:29;;;;;;;3.05;1.80;;;25.60;88.80;;;;;;4938070;29;20055;-76
2022/09/11 10:52:23;;;;;;;4.10;1.45;;;25.10;89.00;;;;;;4968750;28;20046;-77
2022/09/11 10:55:14;;;;;;;1.40;1.00;;;24.90;87.70;;;;;;4953561;29;20051;-77
2022/09/11 10:58:05;;;;;;;2.40;1.40;;;24.60;90.50;;;;;;4953366;29;20050;-76
2022/09/11 11:00:40;;;;;;;2.95;1.20;;;24.30;91.00;;;;;;4954352;29;20055;-78
2022/09/11 11:03:38;;;;;;;1.02;1.02;;;24.10;91.40;;;;;;4953530;29;20051;-78
2022/09/11 11:06:41;;;;;;;4.32;1.73;;;23.90;91.30;;;;;;4921017;29;20086;-78
2022/09/11 11:09:59;;;;;;;3.65;1.52;;;23.30;91.90;;;;;;4936100;29;20051;-76
2022/09/11 11:12:57;;;;;;;2.50;1.80;;;22.70;93.90;;;;;;4936317;29;20517;-79
2022/09/11 11:15:42;;;;;;;3.75;1.70;;;22.20;96.10;;;;;;4933691;29;20055;-80
2022/09/11 11:18:48;;;;;;;8.93;2.42;;;21.90;97.80;;;;;;4952121;29;20071;-77
2022/09/11 11:21:26;;;;;;;5.40;2.20;;;21.60;98.80;;;;;;4936004;29;20554;-75
2022/09/11 11:24:21;;;;;;;2.28;1.75;;;21.40;99.90;;;;;;4953565;29;20043;-76
2022/09/11 11:27:04;;;;;;;3.90;2.30;;;21.20;99.90;;;;;;4939294;29;20134;-74
2022/09/11 11:30:02;;;;;;;4.55;2.40;;;21.10;99.90;;;;;;4970030;28;20047;-74
2022/09/11 11:33:25;;;;;;;5.53;2.63;;;20.80;99.90;;;;;;4946912;29;20110;-73
2022/09/11 11:36:03;;;;;;;;;;;20.40;99.90;;;;;;4953893;29;20066;-74
2022/09/11 11:39:10;;;;;;;3.67;2.50;;;20.20;99.90;;;;;;4953718;28;20002;-75
2022/09/11 11:42:08;;;;;;;4.78;2.80;;;20.10;99.90;;;;;;4944081;29;20113;-76
2022/09/11 11:45:02;;;;;;;3.65;2.70;;;19.90;99.90;;;;;;4953786;29;20440;-76
2022/09/11 11:47:36;;;;;;;5.07;2.58;;;20.00;99.90;;;;;;4937094;29;20102;-74
2022/09/11 11:50:39;;;;;;;3.92;2.65;;;20.00;99.90;;;;;;4953195;29;20062;-75
2022/09/11 11:53:51;;;;;;;4.28;2.70;;;20.10;99.90;;;;;;4955886;28;20174;-76
2022/09/11 11:56:45;;;;;;;6.15;3.60;;;20.20;99.90;;;;;;4956446;28;20136;-75
2022/09/11 11:59:17;;;;;;;4.10;3.30;;;20.40;99.90;;;;;;4972410;28;20063;-74
2022/09/11 12:01:58;;;;;;;4.13;3.63;;;20.50;99.90;;;;;;4940341;28;20046;-76
2022/09/11 12:04:53;;;;;;;6.30;3.13;;;20.70;99.90;;;;;;4956311;28;20057;-76
2022/09/11 12:07:31;;;;;;;6.00;3.88;;;20.90;99.90;;;;;;4956482;28;20503;-76
2022/09/11 12:10:22;;;;;;;4.68;3.05;;;21.00;99.90;;;;;;4956811;28;20043;-75
2022/09/11 12:12:59;;;;;;;4.88;2.88;;;21.20;99.90;;;;;;4956329;28;20050;-75
2022/09/11 12:15:31;;;;;;;3.30;2.80;;;21.40;99.90;;;;;;4971909;28;20114;-77
2022/09/11 12:18:23;;;;;;;2.67;2.45;;;21.40;99.90;;;;;;4955981;28;20051;-75
2022/09/11 12:20:51;;;;;;;4.78;2.65;;;21.30;99.90;;;;;;4965699;28;20063;-75
2022/09/11 12:23:42;;;;;;;2.75;2.55;;;21.20;99.90;;;;;;4955926;28;20054;-76
2022/09/11 12:26:33;;;;;;;4.32;2.83;;;21.20;99.90;;;;;;4955933;28;20089;-76
2022/09/11 12:29:14;;;;;;;5.55;3.00;;;21.30;99.90;;;;;;4956512;28;20043;-77
2022/09/11 12:32:15;;;;;;;3.70;2.75;;;21.40;99.90;;;;;;4956164;28;20065;-75
2022/09/11 12:35:23;;;;;;;5.10;2.92;;;21.40;99.90;;;;;;4956025;28;20053;-74
2022/09/11 12:38:34;;;;;;;3.78;2.92;;;21.40;99.90;;;;;;4955467;28;20410;-74
2022/09/11 12:41:06;;;;;;;3.72;2.55;;;21.40;99.90;;;;;;4973083;28;20078;-76
2022/09/11 12:43:53;;;;;;;2.95;2.13;;;21.40;99.90;;;;;;4956170;28;20459;-73
2022/09/11 12:46:22;;;;;;;3.42;2.00;;;21.40;99.90;;;;;;4955565;28;20138;-75
2022/09/11 12:49:17;;;;;;;2.38;2.10;;;21.40;99.90;;;;;;4971676;28;20376;-75
2022/09/11 12:51:59;;;;;;;6.10;2.20;;;21.50;99.90;;;;;;4975434;28;20130;-75
2022/09/11 12:54:38;;;;;;;2.90;2.58;;;21.70;99.90;;;;;;4975559;28;20117;-75
2022/09/11 12:57:08;;;;;;;3.67;2.10;;;21.90;99.90;;;;;;4959237;28;20055;-76
2022/09/11 12:59:54;;;;;;;3.72;2.25;;;22.00;99.90;;;;;;4959293;28;20062;-77
2022/09/11 13:02:41;;;;;;;1.85;1.65;;;22.10;99.90;;;;;;4959367;28;20571;-76
2022/09/11 13:05:51;;;;;;;2.17;1.77;;;22.20;98.80;;;;;;4975761;28;20046;-78
2022/09/11 13:08:22;;;;;;;1.85;1.70;;;22.40;98.80;;;;;;4952847;28;20536;-78
2022/09/11 13:10:49;;;;;;;2.72;1.80;;;22.60;99.00;;;;;;4959170;28;20042;-78
2022/09/11 13:13:33;;;;;;;2.00;1.80;;;22.80;99.40;;;;;;4942841;28;20160;-76
2022/09/11 13:16:39;;;;;;;4.50;1.58;;;23.00;99.20;;;;;;4958721;28;20472;-78
2022/09/11 13:19:22;;;;;;;3.08;1.95;;;23.00;99.30;;;;;;4956551;28;20098;-76
2022/09/11 13:21:59;;;;;;;1.75;1.65;;;22.80;98.90;;;;;;4942446;28;20058;-78
2022/09/11 13:24:38;;;;;;;3.33;2.13;;;22.70;99.40;;;;;;4961538;28;20038;-78
2022/09/11 13:27:14;;;;;;;4.65;1.92;;;22.70;99.10;;;;;;4958754;28;20401;-76
2022/09/11 13:29:41;;;;;;;2.70;1.90;;;22.70;98.60;;;;;;4959192;28;20055;-76
2022/09/11 13:32:17;;;;;;;5.00;1.83;;;22.80;98.30;;;;;;4975086;28;20051;-75
2022/09/11 13:34:47;;;;;;;2.50;1.52;;;22.90;98.50;;;;;;4974714;28;20517;-74